Time;durP1;ratioP1;P1;durP2;ratioP2;P2;SDS_P1;SDS_P2;PMS_P1;PMS_P2;Temp;Humidity;BMP_temperature;BMP_pressure;BME280_temperature;BME280_humidity;BME280_pressure;Samples;Min_cycle;Max_cycle;Signal;HPM_P1;HPM_P2
2022/03/29 00:01:51;;;;;;;32.45;19.02;;;;;;;8.69;43.22;99942.84;5044633;28;20033;-82
2022/03/29 00:04:17;;;;;;;28.85;19.30;;;;;;;8.67;43.12;99940.31;5034411;28;20106;-83
2022/03/29 00:06:43;;;;;;;30.63;18.75;;;;;;;8.66;43.67;99935.22;5033529;28;20114;-83
2022/03/29 00:09:08;;;;;;;30.08;18.83;;;;;;;8.66;43.35;99929.94;5034791;28;20462;-85
2022/03/29 00:11:35;;;;;;;32.45;19.40;;;;;;;8.68;43.60;99922.75;5034572;28;20025;-84
2022/03/29 00:14:02;;;;;;;27.98;18.67;;;;;;;8.61;43.63;99904.81;5032377;28;20109;-83
2022/03/29 00:16:28;;;;;;;34.80;19.25;;;;;;;8.54;44.46;99903.63;5020332;28;20029;-83
2022/03/29 00:18:55;;;;;;;33.58;19.67;;;;;;;8.53;44.68;99894.09;5017250;28;20030;-83
2022/03/29 00:21:21;;;;;;;30.80;19.05;;;;;;;8.52;44.80;99892.41;5033867;28;20067;-84
2022/03/29 00:23:48;;;;;;;34.75;19.42;;;;;;;8.50;44.74;99889.06;5032784;28;20103;-84
2022/03/29 00:26:14;;;;;;;27.83;18.23;;;;;;;8.44;45.40;99886.06;5034115;28;20136;-81
2022/03/29 00:28:40;;;;;;;32.85;18.70;;;;;;;8.34;45.82;99880.72;5034253;28;20042;-83
2022/03/29 00:31:06;;;;;;;35.08;20.27;;;;;;;8.24;46.47;99874.47;5042331;28;20026;-83
2022/03/29 00:33:33;;;;;;;27.58;19.30;;;;;;;8.25;46.52;99870.88;5041159;28;20091;-82
2022/03/29 00:35:58;;;;;;;33.80;19.85;;;;;;;8.29;46.02;99861.81;5048050;28;20037;-83
2022/03/29 00:38:24;;;;;;;27.67;19.17;;;;;;;8.35;45.91;99861.34;5053870;28;20710;-81
2022/03/29 00:40:50;;;;;;;29.40;19.08;;;;;;;8.37;45.61;99859.41;5054582;28;20021;-84
2022/03/29 00:43:15;;;;;;;33.47;19.70;;;;;;;8.37;45.91;99864.69;5043913;28;20035;-83
2022/03/29 00:45:41;;;;;;;31.80;19.83;;;;;;;8.30;46.24;99858.25;5054818;28;20032;-83
2022/03/29 00:48:08;;;;;;;32.22;19.42;;;;;;;8.33;45.89;99847.47;5058143;28;20067;-82
2022/03/29 00:50:37;;;;;;;32.92;19.48;;;;;;;8.38;45.73;99861.09;5060606;28;20022;-83
2022/03/29 00:53:03;;;;;;;26.60;18.60;;;;;;;8.42;45.69;99857.28;5072085;28;20033;-83
2022/03/29 00:55:30;;;;;;;28.23;18.95;;;;;;;8.47;45.68;99846.41;5070301;28;20105;-83
2022/03/29 00:57:56;;;;;;;32.67;19.45;;;;;;;8.51;45.71;99845.19;5068322;28;20052;-84
2022/03/29 01:00:23;;;;;;;32.78;20.52;;;;;;;8.54;46.01;99839.69;5062049;28;20037;-82
2022/03/29 01:02:48;;;;;;;27.48;17.83;;;;;;;8.53;45.62;99838.84;5066306;28;20033;-82
2022/03/29 01:05:14;;;;;;;30.00;17.70;;;;;;;8.59;45.53;99835.72;5067507;28;20375;-82
2022/03/29 01:07:40;;;;;;;27.67;18.10;;;;;;;8.54;45.35;99835.25;5068584;28;20063;-82
2022/03/29 01:10:06;;;;;;;32.05;18.92;;;;;;;8.46;45.95;99827.16;5071350;28;20028;-81
2022/03/29 01:12:33;;;;;;;33.15;18.95;;;;;;;8.37;46.63;99827.84;5067380;28;20029;-83
2022/03/29 01:15:00;;;;;;;25.10;18.75;;;;;;;8.26;46.90;99819.13;5060403;28;20108;-83
2022/03/29 01:17:39;;;;;;;30.48;18.98;;;;;;;8.19;47.64;99826.66;5054100;28;20043;-83
2022/03/29 01:20:09;;;;;;;28.83;18.58;;;;;;;8.12;47.77;99818.44;5054111;28;20043;-83
2022/03/29 01:22:39;;;;;;;27.85;19.17;;;;;;;7.98;48.65;99815.22;5035823;28;20036;-82
2022/03/29 01:25:06;;;;;;;29.70;19.70;;;;;;;7.85;49.74;99814.50;5059197;28;20041;-83
2022/03/29 01:27:33;;;;;;;29.17;18.85;;;;;;;7.82;49.56;99811.16;5042683;28;20036;-84
2022/03/29 01:30:00;;;;;;;33.35;19.98;;;;;;;7.71;49.15;99808.53;5026698;28;20473;-83
2022/03/29 01:32:28;;;;;;;33.15;19.88;;;;;;;7.55;49.20;99810.66;5052516;28;20135;-83
2022/03/29 01:34:54;;;;;;;31.85;19.33;;;;;;;7.36;49.97;99805.16;5052220;28;20073;-84
2022/03/29 01:37:20;;;;;;;34.75;20.27;;;;;;;7.35;49.47;99798.22;5051974;28;20179;-84
2022/03/29 01:42:59;;;;;;;32.00;19.95;;;;;;;7.09;50.57;99791.47;5275675;23;20396;-83
2022/03/29 01:48:53;;;;;;;29.52;19.63;;;;;;;7.19;49.62;99784.56;5044222;28;20781;-82
2022/03/29 01:51:20;;;;;;;30.77;19.17;;;;;;;7.21;49.96;99787.91;5054066;28;20040;-81
2022/03/29 01:53:55;;;;;;;28.85;18.90;;;;;;;7.24;50.67;99788.53;5051014;28;20392;-83
2022/03/29 01:56:20;;;;;;;28.15;18.38;;;;;;;7.29;50.64;99790.81;5063642;28;20028;-82
2022/03/29 01:58:47;;;;;;;32.17;19.85;;;;;;;7.28;50.32;99795.22;5056758;28;20082;-82
2022/03/29 02:01:13;;;;;;;34.85;19.77;;;;;;;7.24;50.75;99787.69;5065596;28;20025;-82
2022/03/29 02:03:39;;;;;;;33.17;18.70;;;;;;;7.20;50.70;99797.56;5071091;28;20150;-81
2022/03/29 02:06:04;;;;;;;33.42;21.02;;;;;;;7.19;51.12;99795.06;5062007;28;20047;-80
2022/03/29 02:08:30;;;;;;;37.00;20.40;;;;;;;7.16;50.89;99787.44;5074812;28;20045;-82
2022/03/29 02:10:56;;;;;;;28.27;19.52;;;;;;;7.05;51.46;99797.91;5069973;28;20481;-82
2022/03/29 02:13:22;;;;;;;31.92;20.05;;;;;;;6.94;51.66;99791.66;5054879;28;20033;-82
2022/03/29 02:15:48;;;;;;;33.60;20.02;;;;;;;7.01;51.41;99783.34;5075583;28;20109;-82
2022/03/29 02:18:14;;;;;;;41.17;20.65;;;;;;;6.91;51.77;99781.38;5075187;28;20017;-83
2022/03/29 02:20:41;;;;;;;33.15;19.35;;;;;;;6.75;52.97;99780.00;5345443;23;20053;-81
2022/03/29 02:23:09;;;;;;;32.85;18.65;;;;;;;6.62;53.51;99781.84;5055022;28;20041;-82
2022/03/29 02:25:35;;;;;;;29.63;19.35;;;;;;;6.48;53.81;99780.25;5051247;28;20118;-82
2022/03/29 02:28:02;;;;;;;29.50;19.45;;;;;;;6.45;54.16;99775.22;5045501;28;20100;-82
2022/03/29 02:30:32;;;;;;;31.05;20.13;;;;;;;6.51;54.84;99777.41;5067711;28;20039;-82
2022/03/29 02:32:59;;;;;;;36.22;19.40;;;;;;;6.53;53.90;99770.28;5072392;28;20075;-81
2022/03/29 02:35:25;;;;;;;35.88;20.13;;;;;;;6.59;54.19;99769.81;5069647;28;20044;-81
2022/03/29 02:37:51;;;;;;;39.75;19.85;;;;;;;6.69;53.01;99762.94;5068208;28;20084;-82
2022/03/29 02:40:18;;;;;;;29.50;19.80;;;;;;;6.74;52.63;99752.94;5068177;28;20047;-82
2022/03/29 02:42:45;;;;;;;29.98;19.77;;;;;;;6.71;52.68;99753.19;5054286;28;20120;-83
2022/03/29 02:45:18;;;;;;;31.40;19.50;;;;;;;6.70;52.78;99746.28;5054243;28;20053;-83
2022/03/29 02:47:46;;;;;;;29.95;18.55;;;;;;;6.63;53.11;99745.03;5052811;28;20028;-83
2022/03/29 02:50:13;;;;;;;31.67;19.67;;;;;;;6.55;53.19;99737.72;5052854;28;20372;-82
2022/03/29 02:52:45;;;;;;;31.20;18.77;;;;;;;6.47;53.79;99740.09;5053113;28;20037;-84
2022/03/29 02:55:11;;;;;;;33.17;19.48;;;;;;;6.46;53.87;99732.34;5048124;28;20025;-83
2022/03/29 02:57:38;;;;;;;36.90;20.40;;;;;;;6.47;53.67;99728.78;5049630;28;20078;-83
2022/03/29 03:00:05;;;;;;;27.88;17.73;;;;;;;6.45;54.13;99730.66;5055555;28;20060;-83
2022/03/29 03:02:32;;;;;;;31.13;19.58;;;;;;;6.49;54.28;99726.84;5054550;28;20045;-83
2022/03/29 03:04:59;;;;;;;30.17;18.67;;;;;;;6.46;54.80;99725.31;5054902;28;20112;-84
2022/03/29 03:07:25;;;;;;;34.25;18.52;;;;;;;6.52;53.90;99726.66;5029945;28;20325;-83
2022/03/29 03:09:50;;;;;;;29.05;18.08;;;;;;;6.60;54.23;99726.09;5045834;28;20102;-82
2022/03/29 03:12:21;;;;;;;28.95;18.88;;;;;;;6.62;54.11;99727.63;5044221;28;20477;-83
2022/03/29 03:14:48;;;;;;;29.17;18.30;;;;;;;6.56;54.47;99725.47;5050703;28;20033;-82
2022/03/29 03:17:13;;;;;;;29.98;19.50;;;;;;;6.51;54.34;99717.09;5042669;28;20032;-82
2022/03/29 03:19:38;;;;;;;27.52;18.88;;;;;;;6.46;54.68;99716.63;5058784;28;20041;-83
2022/03/29 03:22:04;;;;;;;29.50;18.52;;;;;;;6.43;55.15;99716.81;5056579;28;20071;-82
2022/03/29 03:24:30;;;;;;;28.13;17.83;;;;;;;6.29;55.92;99714.38;5053623;28;20032;-82
2022/03/29 03:26:55;;;;;;;29.42;19.08;;;;;;;6.18;56.74;99718.59;5053466;28;20025;-83
2022/03/29 03:29:21;;;;;;;27.63;18.27;;;;;;;6.20;56.40;99717.66;5053349;28;20025;-82
2022/03/29 03:31:46;;;;;;;28.48;19.13;;;;;;;6.18;56.45;99712.56;5053758;28;20048;-83
2022/03/29 03:34:12;;;;;;;28.40;18.50;;;;;;;6.14;56.36;99727.66;5053381;28;20053;-82
2022/03/29 03:36:38;;;;;;;27.23;17.63;;;;;;;6.13;56.70;99727.75;5044113;28;20044;-83
2022/03/29 03:39:04;;;;;;;29.45;19.85;;;;;;;6.10;56.78;99730.59;5045464;28;20033;-83
2022/03/29 03:41:29;;;;;;;28.98;17.85;;;;;;;6.08;56.53;99732.47;5053831;28;20159;-84
2022/03/29 03:43:55;;;;;;;30.58;18.17;;;;;;;6.01;57.36;99726.84;5027105;28;20063;-83
2022/03/29 03:46:20;;;;;;;26.90;18.45;;;;;;;5.97;56.84;99730.63;5052888;28;20584;-83
2022/03/29 03:48:46;;;;;;;28.95;18.73;;;;;;;6.00;57.91;99725.19;5053475;28;20110;-83
2022/03/29 03:51:11;;;;;;;31.63;19.92;;;;;;;6.02;57.10;99712.81;5043627;28;20025;-83
2022/03/29 03:53:37;;;;;;;24.80;17.60;;;;;;;6.04;57.23;99710.94;5053828;28;20098;-83
2022/03/29 03:56:03;;;;;;;28.50;18.10;;;;;;;6.03;56.76;99698.75;5054471;28;20029;-83
2022/03/29 03:58:29;;;;;;;26.60;18.00;;;;;;;6.04;56.94;99702.22;5057048;28;20033;-83
2022/03/29 04:00:56;;;;;;;28.88;18.70;;;;;;;6.03;57.81;99709.25;5057597;28;20071;-84
2022/03/29 04:03:21;;;;;;;32.55;18.10;;;;;;;6.03;57.56;99700.53;5053463;28;20036;-83
2022/03/29 04:05:48;;;;;;;29.27;18.30;;;;;;;6.03;57.25;99698.75;5043911;28;20025;-83
2022/03/29 04:08:14;;;;;;;28.75;17.95;;;;;;;6.02;56.71;99697.09;5055314;28;20033;-82
2022/03/29 04:10:40;;;;;;;28.45;18.73;;;;;;;6.01;57.71;99700.66;5058312;28;20090;-82
2022/03/29 04:13:06;;;;;;;35.13;18.45;;;;;;;5.96;57.79;99700.16;5062146;28;20037;-84
2022/03/29 04:15:32;;;;;;;27.73;17.55;;;;;;;5.93;57.03;99703.00;5045892;28;20037;-82
2022/03/29 04:18:00;;;;;;;24.83;17.83;;;;;;;5.90;56.83;99699.75;5044485;28;20513;-83
2022/03/29 04:20:29;;;;;;;30.08;17.75;;;;;;;5.84;56.17;99702.78;5046757;28;20040;-83
2022/03/29 04:22:55;;;;;;;27.55;17.90;;;;;;;5.82;56.27;99707.31;5053381;28;20535;-83
2022/03/29 04:25:22;;;;;;;28.58;18.60;;;;;;;5.82;56.36;99697.66;5054085;28;20029;-83
2022/03/29 04:27:47;;;;;;;30.38;18.83;;;;;;;5.86;56.01;99701.72;5053011;28;20459;-83
2022/03/29 04:30:13;;;;;;;28.58;17.40;;;;;;;5.85;56.41;99709.69;5044140;28;20052;-82
2022/03/29 04:32:38;;;;;;;29.70;19.00;;;;;;;5.82;57.01;99710.75;5026897;28;20063;-84
2022/03/29 04:35:06;;;;;;;31.70;19.00;;;;;;;5.82;57.37;99705.53;5043210;28;20037;-83
2022/03/29 04:37:31;;;;;;;30.02;19.10;;;;;;;5.84;56.90;99701.00;5053257;28;20108;-83
2022/03/29 04:40:05;;;;;;;30.73;19.40;;;;;;;5.77;57.36;99697.16;5053640;28;20124;-82
2022/03/29 04:42:30;;;;;;;28.50;18.58;;;;;;;5.62;58.63;99691.22;5053419;28;20043;-82
2022/03/29 04:44:56;;;;;;;26.48;17.60;;;;;;;5.52;59.20;99691.97;5027087;28;20041;-85
2022/03/29 04:47:22;;;;;;;28.35;18.05;;;;;;;5.46;59.93;99682.78;5053543;28;20041;-84
2022/03/29 04:49:49;;;;;;;27.35;18.65;;;;;;;5.46;60.37;99692.41;5061190;28;20051;-82
2022/03/29 04:52:17;;;;;;;26.45;17.92;;;;;;;5.50;60.91;99699.09;5068245;28;20009;-81
2022/03/29 04:54:43;;;;;;;32.95;18.83;;;;;;;5.50;60.80;99692.06;5055468;28;20061;-82
2022/03/29 04:57:10;;;;;;;31.38;18.35;;;;;;;5.52;60.44;99691.97;5054029;28;20083;-83
2022/03/29 04:59:35;;;;;;;33.88;18.83;;;;;;;5.55;60.87;99694.34;5053732;28;20511;-83
2022/03/29 05:02:01;;;;;;;30.08;19.73;;;;;;;5.61;60.37;99686.06;5053837;28;20029;-83
2022/03/29 05:04:27;;;;;;;27.10;17.98;;;;;;;5.67;59.94;99698.72;5041620;28;20027;-82
2022/03/29 05:06:52;;;;;;;28.02;18.23;;;;;;;5.64;59.77;99696.34;5043668;28;20087;-82
2022/03/29 05:53:10;;;;;;;29.20;18.85;;;;;;;5.27;60.39;99719.84;5074753;28;20032;-83
2022/03/29 06:27:47;;;;;;;46.45;28.33;;;;;;;5.41;61.22;99736.38;5030300;28;20104;-84
2022/03/29 06:30:13;;;;;;;35.92;21.88;;;;;;;5.42;61.42;99738.06;5034510;28;20068;-84
2022/03/29 06:32:53;;;;;;;30.27;18.95;;;;;;;5.44;61.38;99725.69;5036220;28;20064;-85
2022/03/29 06:35:23;;;;;;;30.35;20.25;;;;;;;5.49;61.42;99731.44;5032627;28;20528;-84
2022/03/29 06:37:55;;;;;;;35.22;21.08;;;;;;;5.55;61.06;99723.16;5031871;28;20036;-84
2022/03/29 06:40:22;;;;;;;31.95;20.33;;;;;;;5.62;59.87;99727.03;5031882;28;20037;-83
2022/03/29 06:42:48;;;;;;;35.45;20.60;;;;;;;5.68;59.59;99729.22;5036226;28;20029;-85
2022/03/29 06:45:21;;;;;;;29.60;19.73;;;;;;;5.76;59.58;99727.75;3817865;28;10001777;-83
2022/03/29 06:48:13;;;;;;;31.35;20.08;;;;;;;5.87;58.47;99727.00;5032082;28;20124;-85
2022/03/29 06:50:39;;;;;;;31.17;19.35;;;;;;;6.02;57.87;99720.66;5037161;28;20083;-85
2022/03/29 06:53:06;;;;;;;34.70;21.75;;;;;;;6.10;57.17;99720.97;4999961;28;20117;-77
2022/03/29 06:55:32;;;;;;;35.80;21.25;;;;;;;6.21;57.43;99724.59;5033115;28;20120;-79
2022/03/29 06:57:59;;;;;;;36.40;21.00;;;;;;;6.36;57.21;99721.66;5033110;28;20033;-79
2022/03/29 07:00:25;;;;;;;38.10;22.52;;;;;;;6.50;57.55;99718.03;5034285;28;20469;-80
2022/03/29 07:02:50;;;;;;;36.25;22.35;;;;;;;6.60;57.71;99724.28;5019866;28;20034;-81
2022/03/29 07:05:16;;;;;;;34.70;22.40;;;;;;;6.72;58.48;99712.03;4684016;28;10000432;-79
2022/03/29 07:07:42;;;;;;;41.58;22.38;;;;;;;6.89;57.20;99715.06;5030501;28;20446;-78
2022/03/29 07:12:55;;;;;;;34.80;21.35;;;;;;;7.25;54.85;99694.84;5027485;28;20500;-78
2022/03/29 07:15:22;;;;;;;32.50;22.63;;;;;;;7.47;53.74;99700.13;5030615;28;20063;-78
2022/03/29 07:17:48;;;;;;;37.92;21.70;;;;;;;7.67;52.82;99696.75;5031814;28;20556;-76
2022/03/29 07:20:16;;;;;;;37.70;22.17;;;;;;;7.90;51.75;99701.97;5031218;28;20040;-78
2022/03/29 07:22:44;;;;;;;34.30;21.58;;;;;;;8.12;50.97;99705.41;5030570;28;20048;-79
2022/03/29 07:25:20;;;;;;;34.52;21.09;;;;;;;8.39;50.35;99706.78;4647066;28;10002780;-79
2022/03/29 07:27:49;;;;;;;40.65;23.13;;;;;;;8.56;49.81;99690.47;5026312;28;20421;-78
2022/03/29 07:30:15;;;;;;;52.90;22.70;;;;;;;8.69;48.97;99690.28;5016142;28;20382;-79
2022/03/29 07:32:47;;;;;;;32.22;21.83;;;;;;;8.75;49.26;99705.56;5031652;28;20037;-81
2022/03/29 07:35:14;;;;;;;38.05;20.52;;;;;;;8.88;48.80;99700.94;5012106;28;20056;-77
2022/03/29 07:37:40;;;;;;;30.50;20.77;;;;;;;8.96;48.58;99698.50;5030968;28;20033;-78
2022/03/29 07:40:08;;;;;;;39.42;22.80;;;;;;;9.08;48.78;99700.09;5032795;28;20100;-82
2022/03/29 07:42:35;;;;;;;39.17;22.38;;;;;;;9.17;48.58;99696.69;5016459;28;20040;-83
2022/03/29 07:45:03;;;;;;;37.25;22.20;;;;;;;9.26;47.65;99701.16;5015874;28;20417;-79
2022/03/29 07:47:29;;;;;;;37.75;21.52;;;;;;;9.34;47.72;99704.00;5033021;28;20029;-79
2022/03/29 07:49:55;;;;;;;33.55;22.55;;;;;;;9.38;48.38;99709.81;5033727;28;20068;-79
2022/03/29 07:52:20;;;;;;;37.08;22.48;;;;;;;9.46;48.22;99712.63;5033299;28;20057;-77
2022/03/29 07:54:46;;;;;;;42.75;24.15;;;;;;;9.61;47.85;99705.19;5027259;28;20041;-78
2022/03/29 07:57:12;;;;;;;36.15;23.00;;;;;;;9.79;47.37;99706.22;5033325;28;20022;-77
2022/03/29 07:59:38;;;;;;;37.05;23.52;;;;;;;9.99;46.60;99715.88;5033374;28;20042;-77
2022/03/29 08:02:05;;;;;;;42.28;24.38;;;;;;;10.18;46.81;99709.84;5032463;28;20029;-75
2022/03/29 08:04:31;;;;;;;41.45;24.70;;;;;;;10.37;46.20;99711.69;5033412;28;20038;-78
2022/03/29 08:06:57;;;;;;;43.78;25.35;;;;;;;10.52;45.04;99705.84;5033316;28;20037;-77
2022/03/29 08:09:22;;;;;;;50.58;27.83;;;;;;;10.65;44.60;99708.22;5032908;28;20029;-76
2022/03/29 08:11:48;;;;;;;47.78;27.13;;;;;;;10.81;44.22;99703.19;5033072;28;20068;-76
2022/03/29 08:14:15;;;;;;;40.80;24.80;;;;;;;10.97;44.29;99708.72;5032325;28;20088;-76
2022/03/29 08:16:41;;;;;;;36.80;24.08;;;;;;;11.20;43.76;99697.81;5032957;28;20160;-76
2022/03/29 08:19:07;;;;;;;38.45;24.17;;;;;;;11.36;44.32;99708.66;5033443;28;20029;-75
2022/03/29 08:21:50;;;;;;;40.67;23.70;;;;;;;11.40;43.93;99713.50;5031797;28;20042;-80
2022/03/29 08:24:21;;;;;;;39.17;23.88;;;;;;;11.49;43.71;99709.13;5029150;28;20045;-78
2022/03/29 08:26:48;;;;;;;34.60;23.67;;;;;;;11.52;43.71;99703.56;5028005;28;20041;-77
2022/03/29 08:29:16;;;;;;;41.35;24.13;;;;;;;11.60;43.75;99690.47;5013274;28;20075;-75
2022/03/29 08:31:43;;;;;;;41.83;22.60;;;;;;;11.73;42.93;99688.34;5031436;28;20037;-76
2022/03/29 08:34:10;;;;;;;32.72;21.50;;;;;;;11.85;42.48;99695.09;5013240;28;20045;-75
2022/03/29 08:36:36;;;;;;;32.65;20.92;;;;;;;11.99;41.96;99696.41;5030324;28;20072;-76
2022/03/29 08:39:03;;;;;;;30.27;20.45;;;;;;;12.10;41.01;99695.38;5031622;28;20041;-74
2022/03/29 08:41:35;;;;;;;32.92;21.20;;;;;;;12.22;40.72;99692.38;5031706;28;20030;-75
2022/03/29 08:44:02;;;;;;;36.13;21.00;;;;;;;12.30;40.23;99688.97;5031746;28;20037;-74
2022/03/29 08:46:38;;;;;;;31.63;20.58;;;;;;;12.36;39.83;99685.72;5031518;28;20454;-74
2022/03/29 08:49:07;;;;;;;34.22;21.88;;;;;;;12.44;40.17;99687.59;5012268;28;20132;-75
2022/03/29 08:51:32;;;;;;;28.90;19.67;;;;;;;12.49;39.94;99678.22;5030626;28;20021;-77
2022/03/29 08:53:58;;;;;;;29.75;19.10;;;;;;;12.54;40.35;99670.69;5031100;28;20641;-75
2022/03/29 08:56:24;;;;;;;35.28;21.60;;;;;;;12.57;40.57;99670.38;5030592;28;20112;-72
2022/03/29 08:58:50;;;;;;;35.42;22.02;;;;;;;12.61;40.92;99671.72;5031984;28;20033;-75
2022/03/29 09:01:19;;;;;;;32.60;22.35;;;;;;;12.71;41.16;99667.19;5031310;28;20021;-75
2022/03/29 09:03:47;;;;;;;35.08;22.08;;;;;;;12.82;40.87;99667.91;5030078;28;20044;-75
2022/03/29 09:06:13;;;;;;;31.50;21.55;;;;;;;12.93;41.05;99662.38;5013528;28;20030;-74
2022/03/29 09:08:43;;;;;;;33.40;21.23;;;;;;;13.05;40.69;99654.00;5031290;28;20036;-75
2022/03/29 09:11:08;;;;;;;34.67;22.58;;;;;;;13.10;40.45;99642.94;5031026;28;20451;-76
2022/03/29 09:13:34;;;;;;;33.42;20.67;;;;;;;13.18;40.56;99653.63;5029924;28;20104;-76
2022/03/29 09:16:02;;;;;;;28.88;18.75;;;;;;;13.30;40.73;99641.78;5013426;28;20108;-77
2022/03/29 09:47:30;;;;;;;23.92;15.68;;;;;;;14.46;47.36;99602.94;4931817;29;20055;-79
2022/03/29 10:05:20;;;;;;;23.40;16.10;;;;;;;14.31;48.18;99574.38;4908706;29;20119;-82
2022/03/29 10:16:24;;;;;;;;;;;;;;;;;;;;;
2022/03/29 10:19:30;;;;;;;23.98;17.25;;;;;;;15.03;46.99;99551.38;4837032;29;20119;-79
2022/03/29 11:00:46;;;;;;;29.50;18.10;;;;;;;16.20;46.29;99473.22;5048007;28;20186;-82
2022/03/29 11:03:24;;;;;;;25.52;18.77;;;;;;;16.24;46.37;99466.53;5015597;28;20524;-76
2022/03/29 11:06:11;;;;;;;26.50;17.98;;;;;;;16.36;45.82;99463.25;5044396;28;20041;-79
2022/03/29 11:08:48;;;;;;;27.02;18.17;;;;;;;16.47;46.29;99445.97;5046890;28;20052;-79
2022/03/29 11:11:46;;;;;;;24.00;17.45;;;;;;;16.51;47.08;99449.09;5015089;28;20043;-79
2022/03/29 11:14:27;;;;;;;21.20;16.77;;;;;;;16.57;47.02;99449.19;5031681;28;20113;-78
2022/03/29 11:17:13;;;;;;;25.60;19.00;;;;;;;16.65;46.69;99441.16;5050806;28;20064;-80
2022/03/29 11:19:38;;;;;;;25.08;17.92;;;;;;;16.74;46.54;99437.38;5027733;28;20413;-79
2022/03/29 11:22:29;;;;;;;21.10;16.25;;;;;;;16.89;47.29;99439.19;5058899;28;20090;-80
2022/03/29 11:25:05;;;;;;;26.13;16.85;;;;;;;16.98;47.04;99428.22;5048202;28;20028;-80
2022/03/29 11:27:33;;;;;;;22.90;16.20;;;;;;;17.03;47.15;99427.66;5054915;28;20179;-79
2022/03/29 11:30:00;;;;;;;23.73;15.93;;;;;;;17.09;47.32;99418.91;5036570;28;20044;-79
2022/03/29 11:32:27;;;;;;;18.58;16.02;;;;;;;17.15;46.85;99415.50;5052809;28;20025;-78
2022/03/29 11:34:56;;;;;;;24.30;15.30;;;;;;;17.25;46.62;99410.72;5036183;28;20040;-81
2022/03/29 11:37:33;;;;;;;26.08;16.60;;;;;;;17.33;46.53;99402.56;5052003;28;20044;-79
2022/03/29 11:40:04;;;;;;;21.40;17.60;;;;;;;17.40;45.86;99400.81;5029976;28;20054;-79
2022/03/29 11:43:00;;;;;;;22.75;16.73;;;;;;;17.38;46.46;99386.81;5012257;28;20073;-78
2022/03/29 11:45:28;;;;;;;22.52;15.15;;;;;;;17.48;46.55;99384.69;5005134;28;20132;-80
2022/03/29 11:47:56;;;;;;;22.90;15.50;;;;;;;17.62;46.20;99374.13;5019435;28;20116;-81
2022/03/29 11:50:33;;;;;;;22.55;15.70;;;;;;;17.77;45.72;99366.91;5053837;28;20509;-79
2022/03/29 11:52:59;;;;;;;22.15;15.13;;;;;;;17.86;45.62;99365.72;5050621;28;20032;-78
2022/03/29 11:55:25;;;;;;;19.13;14.45;;;;;;;17.98;45.06;99364.16;5019581;28;20040;-79
2022/03/29 11:57:52;;;;;;;20.00;16.33;;;;;;;18.07;44.56;99349.66;5018141;28;20035;-81
2022/03/29 12:00:27;;;;;;;18.92;14.88;;;;;;;18.25;44.52;99343.81;5018701;28;20048;-80
2022/03/29 12:02:54;;;;;;;18.83;14.60;;;;;;;18.36;44.71;99344.09;5031793;28;20040;-80
2022/03/29 12:05:27;;;;;;;22.17;14.57;;;;;;;18.34;44.59;99331.94;5018370;28;20128;-80
2022/03/29 12:08:02;;;;;;;19.25;15.20;;;;;;;18.28;44.75;99333.56;5033388;28;20037;-83
2022/03/29 12:10:41;;;;;;;23.63;14.60;;;;;;;18.30;44.98;99326.16;5034974;28;20033;-78
2022/03/29 12:13:14;;;;;;;;;;;;;;;18.41;44.55;99320.25;5034525;28;20118;-78
2022/03/29 12:15:40;;;;;;;16.73;13.43;;;;;;;18.50;44.03;99306.72;5018220;28;19966;-78
2022/03/29 12:18:53;;;;;;;17.20;13.98;;;;;;;18.64;43.57;99316.47;5052820;28;20017;-79
2022/03/29 12:21:22;;;;;;;17.73;13.27;;;;;;;18.80;43.11;99311.59;5034681;28;20385;-80
2022/03/29 12:23:52;;;;;;;18.02;13.00;;;;;;;18.96;42.63;99310.41;5050436;28;20029;-76
2022/03/29 12:26:19;;;;;;;16.55;13.52;;;;;;;19.09;42.34;99289.03;5032596;28;20036;-79
2022/03/29 12:28:45;;;;;;;20.98;14.23;;;;;;;19.10;41.88;99290.69;5016288;28;20082;-77
2022/03/29 12:31:13;;;;;;;16.67;13.15;;;;;;;19.27;41.98;99283.06;5051649;28;20029;-78
2022/03/29 12:33:41;;;;;;;18.38;13.80;;;;;;;19.43;41.73;99279.19;5050764;28;20451;-78
2022/03/29 12:36:10;;;;;;;19.15;13.25;;;;;;;19.48;41.07;99269.53;5018518;28;20037;-80
2022/03/29 12:38:41;;;;;;;15.82;14.02;;;;;;;19.54;40.39;99266.03;5052184;28;20102;-77
2022/03/29 12:41:08;;;;;;;16.42;12.88;;;;;;;19.52;40.36;99268.09;5033870;28;20074;-78
2022/03/29 12:43:36;;;;;;;16.35;13.10;;;;;;;19.60;40.32;99259.03;5050788;28;20024;-77
2022/03/29 12:46:09;;;;;;;17.00;12.75;;;;;;;19.74;40.03;99255.28;5050334;28;20079;-76
2022/03/29 12:48:41;;;;;;;17.95;12.15;;;;;;;19.87;40.02;99239.19;5034195;28;20033;-77
2022/03/29 12:51:08;;;;;;;20.90;12.18;;;;;;;20.02;39.91;99237.09;5051362;28;20351;-77
2022/03/29 12:53:35;;;;;;;19.20;13.05;;;;;;;20.14;39.45;99229.25;5017521;28;20125;-78
2022/03/29 12:56:09;;;;;;;15.32;12.88;;;;;;;20.25;38.83;99235.78;5016585;28;20064;-76
2022/03/29 12:58:36;;;;;;;20.73;13.68;;;;;;;20.26;38.39;99232.88;5051426;28;20044;-77
2022/03/29 13:01:03;;;;;;;18.00;12.00;;;;;;;20.43;38.26;99231.41;5049971;28;20033;-80
2022/03/29 13:03:45;;;;;;;19.92;12.30;;;;;;;20.69;37.68;99217.00;5051287;28;20124;-79
2022/03/29 13:06:11;;;;;;;12.93;10.40;;;;;;;20.95;37.05;99221.38;5051568;28;20033;-76
2022/03/29 13:08:37;;;;;;;14.50;10.20;;;;;;;21.06;36.67;99209.13;5052508;28;20123;-77
2022/03/29 13:11:17;;;;;;;16.40;11.15;;;;;;;21.08;36.47;99204.38;5053256;28;20389;-78
2022/03/29 13:13:43;;;;;;;17.02;12.85;;;;;;;21.09;36.60;99192.56;5034195;28;20088;-78
2022/03/29 13:16:19;;;;;;;16.25;11.63;;;;;;;21.18;36.58;99197.50;5036557;28;20056;-77
2022/03/29 13:18:52;;;;;;;20.45;13.52;;;;;;;21.35;36.52;99184.34;5051723;28;20434;-77
2022/03/29 13:21:32;;;;;;;17.17;12.70;;;;;;;21.48;36.01;99172.66;5050616;28;20040;-79
2022/03/29 13:24:03;;;;;;;10.68;9.57;;;;;;;21.72;35.01;99179.00;5030815;28;20025;-79
2022/03/29 13:26:30;;;;;;;11.35;9.20;;;;;;;22.13;34.34;99176.47;5060402;28;20045;-77
2022/03/29 13:28:58;;;;;;;9.98;7.88;;;;;;;22.46;33.62;99176.84;5070367;28;20105;-79
2022/03/29 13:31:30;;;;;;;9.75;7.95;;;;;;;22.96;32.96;99165.78;5058897;28;20097;-78
2022/03/29 13:33:59;;;;;;;10.90;8.23;;;;;;;23.53;31.07;99166.03;5052160;28;20050;-80
2022/03/29 13:36:26;;;;;;;9.57;7.97;;;;;;;24.25;30.25;99163.78;5023231;28;20104;-79
2022/03/29 13:38:55;;;;;;;11.27;8.65;;;;;;;25.08;28.53;99149.63;5053476;28;20025;-79
2022/03/29 13:41:21;;;;;;;14.30;9.23;;;;;;;25.73;27.07;99148.97;5034615;28;20040;-77
2022/03/29 13:43:47;;;;;;;9.25;8.25;;;;;;;26.49;26.15;99151.50;5048204;28;20044;-80
2022/03/29 13:46:14;;;;;;;12.82;8.93;;;;;;;26.97;25.48;99136.25;5050341;28;20021;-80
2022/03/29 13:48:43;;;;;;;10.38;8.25;;;;;;;27.19;24.98;99131.53;5049706;28;20036;-77
2022/03/29 13:51:13;;;;;;;11.73;8.15;;;;;;;27.59;24.51;99130.16;5032219;28;20045;-79
2022/03/29 13:53:39;;;;;;;10.83;7.50;;;;;;;27.77;24.53;99120.75;5032738;28;20489;-78
2022/03/29 13:56:06;;;;;;;10.50;7.65;;;;;;;27.97;24.14;99110.81;5031877;28;20112;-76
2022/03/29 13:58:32;;;;;;;9.95;7.70;;;;;;;27.49;24.62;99113.81;5051122;28;20155;-79
2022/03/29 14:00:59;;;;;;;9.30;7.95;;;;;;;26.57;25.42;99108.81;5049829;28;20124;-79
2022/03/29 14:03:27;;;;;;;12.30;7.38;;;;;;;25.74;26.31;99091.16;5031036;28;20037;-79
2022/03/29 14:05:53;;;;;;;15.43;8.52;;;;;;;24.94;27.38;99097.84;5018236;28;20106;-80
2022/03/29 14:08:19;;;;;;;14.73;8.05;;;;;;;24.14;28.64;99097.25;5053981;28;20039;-79
2022/03/29 14:10:45;;;;;;;9.82;7.65;;;;;;;23.64;29.91;99108.63;5026614;28;20108;-78
2022/03/29 14:13:12;;;;;;;10.60;7.97;;;;;;;23.12;31.19;99105.88;5057317;28;20067;-78
2022/03/29 14:15:41;;;;;;;12.45;7.63;;;;;;;23.15;31.88;99110.78;5059167;28;20029;-76
2022/03/29 14:18:10;;;;;;;10.65;7.30;;;;;;;23.50;31.48;99101.91;5058148;28;20037;-82
2022/03/29 14:20:39;;;;;;;10.13;7.53;;;;;;;23.73;30.97;99099.16;5034154;28;20029;-79
2022/03/29 14:23:07;;;;;;;10.15;7.43;;;;;;;23.72;30.74;99097.50;5018558;28;20036;-80
2022/03/29 14:25:36;;;;;;;12.32;7.47;;;;;;;23.31;31.67;99097.69;5046147;28;20029;-80
2022/03/29 14:28:07;;;;;;;11.75;8.15;;;;;;;22.65;32.58;99085.34;5050288;28;20037;-79